This is the latest recevied weather packets stored in our database for station/object LRCT. If no packets are shown the sender has not sent any weather packets the latest 10 day(s).
| Time | Temp. | Humidity | Pressure | Rain* | Wind** | Luminosity | Snow |
|---|---|---|---|---|---|---|---|
| 1777807137 | 15° C | 34% | 1022 hPa | - | - | - | - |
| 1777806257 | 15° C | 34% | 1022 hPa | - | - | - | - |
| 1777805382 | 13.89° C | 33% | 1023 hPa | - | - | - | - |
| 1777804445 | 13.89° C | 33% | 1023 hPa | - | - | - | - |
| 1777803537 | 13.89° C | 33% | 1023 hPa | - | - | - | - |
| 1777802637 | 13.89° C | 33% | 1023 hPa | - | - | - | - |
| 1777801737 | 12.78° C | 36% | 1023 hPa | - | - | - | - |
| 1777800837 | 12.78° C | 36% | 1023 hPa | - | - | - | - |
| 1777799937 | 12.78° C | 36% | 1023 hPa | - | - | - | - |
| 1777798137 | 12.22° C | 47% | 1024 hPa | - | - | - | - |
| 1777797236 | 12.22° C | 47% | 1024 hPa | - | - | - | - |
| 1777796337 | 12.22° C | 47% | 1024 hPa | - | - | - | - |
| 1777795447 | 12.22° C | 47% | 1024 hPa | - | - | - | - |
| 1777794537 | 10° C | 58% | 1024 hPa | - | - | - | - |
| 1777793636 | 10° C | 58% | 1024 hPa | - | - | - | - |
| 1777792735 | 10° C | 58% | 1024 hPa | - | - | - | - |
| 1777791837 | 10° C | 58% | 1024 hPa | - | - | - | - |
| 1777790938 | 7.78° C | 66% | 1023 hPa | - | - | - | - |
| 1777790073 | 7.78° C | 66% | 1023 hPa | - | - | - | - |
| 1777789138 | 7.78° C | 66% | 1023 hPa | - | - | - | - |
| 1777788236 | 7.78° C | 66% | 1023 hPa | - | - | - | - |
| 1777787337 | 3.89° C | 75% | 1023 hPa | - | - | - | - |
| 1777786437 | 3.89° C | 75% | 1023 hPa | - | - | - | - |
| 1777785533 | 3.89° C | 75% | 1023 hPa | - | - | - | - |
| 1777783733 | 1.11° C | 87% | 1023 hPa | - | - | - | - |
* Rain since midnight (hover to see other rain measurements)
** Current wind speed in m/s (hover to see current wind gust speed)